Time;durP1;ratioP1;P1;durP2;ratioP2;P2;SDS_P1;SDS_P2;PMS_P1;PMS_P2;Temp;Humidity;BMP_temperature;BMP_pressure;BME280_temperature;BME280_humidity;BME280_pressure;Samples;Min_cycle;Max_cycle;Signal;HPM_P1;HPM_P2
2022/08/01 00:01:05;;;;;;;;;;;;;;;24.32;56.67;100617.75;5024774;28;6962;-74
2022/08/01 00:03:30;;;;;;;;;;;;;;;24.29;56.33;100616.06;5010648;28;6776;-74
2022/08/01 00:05:57;;;;;;;;;;;;;;;24.26;57.14;100616.94;4981743;28;7121;-74
2022/08/01 00:08:22;;;;;;;;;;;;;;;24.22;57.18;100609.09;5013218;28;6776;-74
2022/08/01 00:10:48;;;;;;;;;;;;;;;24.20;56.75;100613.50;4982036;28;6783;-74
2022/08/01 00:13:14;;;;;;;;;;;;;;;24.15;57.47;100605.66;4999900;28;7027;-74
2022/08/01 00:15:41;;;;;;;;;;;;;;;24.12;57.65;100614.38;4980051;28;7158;-74
2022/08/01 00:18:06;;;;;;;;;;;;;;;24.09;57.71;100603.91;4982017;28;7301;-74
2022/08/01 00:20:32;;;;;;;;;;;;;;;24.09;57.54;100605.69;4980399;28;6792;-74
2022/08/01 00:22:57;;;;;;;;;;;;;;;24.06;58.08;100605.69;5011481;28;6780;-74
2022/08/01 00:25:23;;;;;;;;;;;;;;;24.07;57.34;100604.81;5011102;28;7099;-74
2022/08/01 00:27:49;;;;;;;;;;;;;;;24.04;57.48;100610.00;5017052;28;7154;-74
2022/08/01 00:30:14;;;;;;;;;;;;;;;24.03;57.60;100610.91;5011322;28;6836;-74
2022/08/01 00:32:42;;;;;;;;;;;;;;;24.02;57.03;100606.53;4984624;28;6780;-74
2022/08/01 00:35:09;;;;;;;;;;;;;;;24.02;57.82;100611.78;4983107;28;6780;-74
2022/08/01 00:37:34;;;;;;;;;;;;;;;24.05;57.67;100614.44;5014504;28;6780;-74
2022/08/01 00:40:00;;;;;;;;;;;;;;;24.06;57.08;100608.31;5019178;28;6851;-74
2022/08/01 00:42:25;;;;;;;;;;;;;;;24.06;57.47;100601.31;5018128;28;6950;-74
2022/08/01 00:44:51;;;;;;;;;;;;;;;24.08;57.68;100609.16;5004625;28;7012;-74
2022/08/01 00:47:17;;;;;;;;;;;;;;;24.08;58.23;100602.16;4982734;28;7840;-74
2022/08/01 00:49:43;;;;;;;;;;;;;;;24.09;57.79;100603.06;5013904;28;7211;-74
2022/08/01 00:52:10;;;;;;;;;;;;;;;24.08;57.98;100607.41;5014039;28;6978;-74
2022/08/01 00:54:36;;;;;;;;;;;;;;;24.09;57.63;100610.91;5019039;28;6788;-74
2022/08/01 00:57:02;;;;;;;;;;;;;;;24.08;57.59;100610.03;5015555;28;6784;-74
2022/08/01 00:59:28;;;;;;;;;;;;;;;24.08;57.77;100609.16;4987241;28;7946;-74
2022/08/01 01:01:54;;;;;;;;;;;;;;;24.07;57.91;100610.06;4982655;28;6985;-74
2022/08/01 01:04:19;;;;;;;;;;;;;;;24.07;58.35;100605.66;5013516;28;6909;-74
2022/08/01 01:07:14;;;;;;;;;;;;;;;24.08;57.80;100606.56;5018016;28;6772;-75
2022/08/01 01:09:58;;;;;;;;;;;;;;;24.06;58.46;100611.78;5010110;28;6816;-75
2022/08/01 01:12:51;;;;;;;;;;;;;;;24.06;58.61;100608.31;4995856;28;6980;-74
2022/08/01 01:15:30;;;;;;;;;;;;;;;24.05;58.11;100609.19;5010320;28;6831;-74
2022/08/01 01:18:12;;;;;;;;;;;;;;;24.06;57.96;100608.31;5031345;28;7324;-74
2022/08/01 01:20:49;;;;;;;;;;;;;;;24.04;58.53;100604.78;5012914;28;7054;-74
2022/08/01 01:23:49;;;;;;;;;;;;;;;24.05;57.82;100603.97;5017040;28;6819;-74
2022/08/01 01:26:31;;;;;;;;;;;;;;;24.02;57.85;100606.53;5017266;28;7286;-74
2022/08/01 01:29:04;;;;;;;;;;;;;;;23.99;58.15;100604.81;4983132;28;7107;-74
2022/08/01 01:31:41;;;;;;;;;;;;;;;23.98;58.30;100601.31;4986792;28;6803;-74
2022/08/01 01:34:11;;;;;;;;;;;;;;;23.99;57.92;100597.84;5019396;28;6998;-74
2022/08/01 01:36:39;;;;;;;;;;;;;;;24.03;58.65;100603.03;4982946;28;6788;-74
2022/08/01 01:39:06;;;;;;;;;;;;;;;24.03;58.77;100610.91;4996549;28;6988;-74
2022/08/01 01:41:37;;;;;;;;;;;;;;;24.04;58.34;100615.25;5014979;28;7092;-74
2022/08/01 01:44:05;;;;;;;;;;;;;;;24.05;58.11;100611.81;5016580;28;6991;-74
2022/08/01 01:46:32;;;;;;;;;;;;;;;24.07;58.49;100610.06;5016456;28;6811;-74
2022/08/01 01:49:00;;;;;;;;;;;;;;;24.08;58.25;100617.88;5014687;28;7035;-74
2022/08/01 01:51:28;;;;;;;;;;;;;;;24.09;58.24;100613.53;5013554;28;6819;-74
2022/08/01 01:53:56;;;;;;;;;;;;;;;24.11;58.40;100609.16;4997325;28;6974;-74
2022/08/01 01:56:24;;;;;;;;;;;;;;;24.12;58.35;100603.91;5016059;28;7038;-74
2022/08/01 01:59:00;;;;;;;;;;;;;;;24.13;58.53;100604.75;5017209;28;7007;-74
2022/08/01 02:01:32;;;;;;;;;;;;;;;24.15;58.40;100604.78;5033787;28;7619;-74
2022/08/01 02:04:02;;;;;;;;;;;;;;;24.17;58.20;100606.50;4980037;28;7074;-74
2022/08/01 02:06:31;;;;;;;;;;;;;;;24.18;58.41;100597.78;5012017;28;6803;-74
2022/08/01 02:09:01;;;;;;;;;;;;;;;24.18;58.34;100597.78;4985620;28;8185;-74
2022/08/01 02:11:26;;;;;;;;;;;;;;;24.23;58.06;100603.84;4996226;28;6989;-74
2022/08/01 02:13:58;;;;;;;;;;;;;;;24.25;58.50;100599.50;4982068;28;6772;-74
2022/08/01 02:16:29;;;;;;;;;;;;;;;24.26;58.15;100596.00;4979904;28;6812;-74
2022/08/01 02:18:55;;;;;;;;;;;;;;;24.29;57.89;100602.06;4977498;28;6868;-74
2022/08/01 02:21:32;;;;;;;;;;;;;;;24.28;58.48;100598.56;5001300;28;6980;-74
2022/08/01 02:24:20;;;;;;;;;;;;;;;24.29;57.78;100599.47;5003410;28;8513;-74
2022/08/01 02:26:54;;;;;;;;;;;;;;;24.30;58.54;100601.19;4986648;28;7888;-74
2022/08/01 02:29:36;;;;;;;;;;;;;;;24.33;57.69;100595.94;5012254;28;6800;-74
2022/08/01 02:32:06;;;;;;;;;;;;;;;24.34;58.30;100600.31;4981480;28;7356;-74
2022/08/01 02:34:35;;;;;;;;;;;;;;;24.35;57.81;100591.59;5012700;28;6808;-74
2022/08/01 02:37:03;;;;;;;;;;;;;;;24.35;58.23;100594.19;5013269;28;8976;-74
2022/08/01 02:39:31;;;;;;;;;;;;;;;24.35;58.36;100599.44;5015536;28;7109;-74
2022/08/01 02:42:04;;;;;;;;;;;;;;;24.34;57.83;100589.84;4971752;28;6993;-74
2022/08/01 02:44:38;;;;;;;;;;;;;;;24.35;58.41;100591.59;4962808;28;7340;-76
2022/08/01 02:47:05;;;;;;;;;;;;;;;24.36;58.30;100588.06;4988251;28;7872;-75
2022/08/01 02:49:37;;;;;;;;;;;;;;;24.35;57.86;100583.72;4985964;28;6788;-75
2022/08/01 02:52:09;;;;;;;;;;;;;;;24.35;58.19;100584.56;4961386;28;7009;-74
2022/08/01 02:54:37;;;;;;;;;;;;;;;24.36;57.64;100595.94;4986896;28;6868;-74
2022/08/01 02:57:05;;;;;;;;;;;;;;;24.35;58.23;100584.56;5003594;28;7161;-75
2022/08/01 02:59:37;;;;;;;;;;;;;;;24.34;57.85;100593.31;5014950;28;7019;-75
2022/08/01 03:02:06;;;;;;;;;;;;;;;24.33;57.81;100591.56;5018379;28;7226;-74
2022/08/01 03:04:35;;;;;;;;;;;;;;;24.33;58.23;100590.69;5015256;28;6973;-74
2022/08/01 03:07:05;;;;;;;;;;;;;;;24.33;58.15;100583.72;4988460;28;7877;-74
2022/08/01 03:09:37;;;;;;;;;;;;;;;24.33;57.92;100591.56;5019142;28;6808;-74
2022/08/01 03:12:10;;;;;;;;;;;;;;;24.34;58.01;100592.47;5017160;28;6792;-74
2022/08/01 03:14:39;;;;;;;;;;;;;;;24.34;58.00;100590.69;5006030;28;7029;-74
2022/08/01 03:17:07;;;;;;;;;;;;;;;24.35;57.89;100600.28;4988257;28;7714;-74
2022/08/01 03:19:37;;;;;;;;;;;;;;;24.38;57.82;100592.41;4989543;28;6928;-74
2022/08/01 03:22:10;;;;;;;;;;;;;;;24.37;57.71;100590.66;4999551;28;6877;-74
2022/08/01 03:24:39;;;;;;;;;;;;;;;24.41;58.24;100599.38;5005352;28;8156;-74
2022/08/01 03:27:08;;;;;;;;;;;;;;;24.41;57.91;100591.53;4969231;28;6999;-74
2022/08/01 03:29:35;;;;;;;;;;;;;;;24.43;57.25;100602.84;4982086;28;6847;-74
2022/08/01 03:32:03;;;;;;;;;;;;;;;24.43;57.81;100592.38;4982449;28;6832;-74
2022/08/01 03:34:30;;;;;;;;;;;;;;;24.44;58.23;100602.00;5016378;28;6835;-75
2022/08/01 03:37:26;;;;;;;;;;;;;;;24.45;57.79;100597.59;5014577;28;7235;-75
2022/08/01 03:40:04;;;;;;;;;;;;;;;24.44;57.49;100599.38;4978782;28;7150;-74
2022/08/01 03:42:41;;;;;;;;;;;;;;;24.46;57.98;100591.50;4985021;28;6792;-75
2022/08/01 03:45:15;;;;;;;;;;;;;;;24.49;57.18;100591.50;4995214;28;8054;-76
2022/08/01 03:47:44;;;;;;;;;;;;;;;24.49;57.78;100594.97;4995186;28;7197;-75
2022/08/01 03:50:13;;;;;;;;;;;;;;;24.52;57.25;100604.56;4975159;28;7091;-75
2022/08/01 03:52:44;;;;;;;;;;;;;;;24.53;57.00;100601.94;5012989;28;6947;-75
2022/08/01 03:55:12;;;;;;;;;;;;;;;24.54;57.16;100603.69;4979471;28;7097;-75
2022/08/01 03:57:39;;;;;;;;;;;;;;;24.56;57.29;100598.41;4994890;28;7109;-75
2022/08/01 04:00:08;;;;;;;;;;;;;;;24.59;57.13;100608.00;5005789;28;7043;-75
2022/08/01 04:02:36;;;;;;;;;;;;;;;24.60;57.37;100609.72;5011050;28;6807;-75
2022/08/01 04:05:03;;;;;;;;;;;;;;;24.63;57.28;100599.25;5008716;28;7118;-75
2022/08/01 04:07:32;;;;;;;;;;;;;;;24.63;57.30;100600.09;5011288;28;6783;-75
2022/08/01 04:09:58;;;;;;;;;;;;;;;24.65;57.14;100602.72;4973897;28;7078;-74
2022/08/01 04:12:24;;;;;;;;;;;;;;;24.65;57.00;100600.97;4977426;28;6799;-75
2022/08/01 04:14:50;;;;;;;;;;;;;;;24.66;57.43;100601.84;5012694;28;7398;-75
2022/08/01 04:17:17;;;;;;;;;;;;;;;24.66;57.04;100605.31;5006749;28;6916;-75
2022/08/01 04:19:45;;;;;;;;;;;;;;;24.66;57.47;100593.97;5020240;28;7024;-75
2022/08/01 04:22:15;;;;;;;;;;;;;;;24.66;57.28;100605.31;5011329;28;7216;-75
2022/08/01 04:24:48;;;;;;;;;;;;;;;24.66;57.43;100604.47;5009529;28;6780;-75
2022/08/01 04:27:23;;;;;;;;;;;;;;;24.67;56.91;100611.44;5010003;28;6812;-75
2022/08/01 04:29:56;;;;;;;;;;;;;;;24.66;57.04;100622.81;5010075;28;7234;-75
2022/08/01 04:32:23;;;;;;;;;;;;;;;24.64;57.00;100622.81;4974306;28;6820;-75
2022/08/01 04:34:55;;;;;;;;;;;;;;;24.66;57.40;100634.13;5011209;28;6934;-75
2022/08/01 04:37:25;;;;;;;;;;;;;;;24.67;57.45;100632.41;4968062;28;7007;-76
2022/08/01 04:39:54;;;;;;;;;;;;;;;24.68;57.11;100624.53;4981435;28;7224;-76
2022/08/01 04:42:20;;;;;;;;;;;;;;;24.69;57.33;100633.25;4988556;28;8007;-76
2022/08/01 04:44:45;;;;;;;;;;;;;;;24.70;56.74;100637.63;5002572;28;7175;-76
2022/08/01 04:47:13;;;;;;;;;;;;;;;24.65;57.18;100631.53;4979541;28;7010;-75
2022/08/01 04:49:39;;;;;;;;;;;;;;;24.58;57.73;100632.47;5014590;28;6950;-75
2022/08/01 04:52:06;;;;;;;;;;;;;;;24.50;57.83;100641.22;5011927;28;6803;-76
2022/08/01 04:54:36;;;;;;;;;;;;;;;24.44;57.58;100645.66;4978947;28;7043;-75
2022/08/01 04:57:06;;;;;;;;;;;;;;;24.37;57.78;100653.53;4984238;28;6804;-75
2022/08/01 04:59:40;;;;;;;;;;;;;;;24.31;58.02;100650.06;4982231;28;7459;-75
2022/08/01 05:02:17;;;;;;;;;;;;;;;24.24;58.29;100651.84;4995994;28;6946;-75
2022/08/01 05:04:45;;;;;;;;;;;;;;;24.19;58.99;100644.03;4976920;28;6857;-75
2022/08/01 05:07:12;;;;;;;;;;;;;;;24.14;58.37;100648.41;4985247;28;6984;-75
2022/08/01 05:09:42;;;;;;;;;;;;;;;24.08;58.78;100645.81;5012198;28;7130;-75
2022/08/01 05:12:10;;;;;;;;;;;;;;;24.03;58.96;100650.16;4976788;28;7094;-75
2022/08/01 05:14:37;;;;;;;;;;;;;;;23.98;59.46;100651.06;4985265;28;6863;-75
2022/08/01 05:17:06;;;;;;;;;;;;;;;23.99;60.17;100654.53;5014640;28;6988;-75
2022/08/01 05:19:34;;;;;;;;;;;;;;;24.00;59.39;100651.91;5012979;28;6863;-75
2022/08/01 05:22:04;;;;;;;;;;;;;;;23.99;59.43;100655.41;4984387;28;6959;-75
2022/08/01 05:24:31;;;;;;;;;;;;;;;23.99;59.72;100650.19;4987844;28;6989;-75
2022/08/01 05:26:58;;;;;;;;;;;;;;;24.00;59.97;100657.16;5015253;28;7007;-74
2022/08/01 05:29:24;;;;;;;;;;;;;;;23.96;59.48;100660.66;4989773;28;7090;-74
2022/08/01 05:31:51;;;;;;;;;;;;;;;23.90;59.48;100665.91;5014461;28;6807;-73
2022/08/01 05:34:16;;;;;;;;;;;;;;;23.82;59.63;100662.44;4975148;28;7054;-74
2022/08/01 05:36:43;;;;;;;;;;;;;;;23.72;59.81;100667.69;4975272;28;6814;-74
2022/08/01 05:39:08;;;;;;;;;;;;;;;23.64;60.68;100674.69;5010560;28;7289;-74
2022/08/01 05:41:36;;;;;;;;;;;;;;;23.57;60.55;100665.13;4991533;28;6967;-75
2022/08/01 05:44:05;;;;;;;;;;;;;;;23.52;61.67;100659.03;4984416;28;7209;-75
2022/08/01 05:46:33;;;;;;;;;;;;;;;23.52;62.09;100672.09;5015681;28;7757;-75
2022/08/01 05:49:00;;;;;;;;;;;;;;;23.52;62.04;100664.25;4995483;28;7098;-75
2022/08/01 05:51:26;;;;;;;;;;;;;;;23.52;61.89;100664.25;5002643;28;7218;-76
2022/08/01 05:53:53;;;;;;;;;;;;;;;23.55;62.24;100665.13;4983992;28;6792;-75
2022/08/01 05:56:19;;;;;;;;;;;;;;;23.58;62.30;100656.41;4977253;28;6816;-75
2022/08/01 05:58:45;;;;;;;;;;;;;;;23.67;62.96;100658.13;5014227;28;7023;-75
2022/08/01 06:01:11;;;;;;;;;;;;;;;23.75;62.51;100669.44;5013575;28;6771;-75
2022/08/01 06:03:36;;;;;;;;;;;;;;;23.85;62.53;100667.66;4980659;28;6910;-75
2022/08/01 06:06:03;;;;;;;;;;;;;;;23.93;62.91;100665.91;5013137;28;6991;-75
2022/08/01 06:08:28;;;;;;;;;;;;;;;24.00;62.44;100665.00;5029733;28;7056;-75
2022/08/01 06:10:54;;;;;;;;;;;;;;;24.07;62.34;100665.03;5011685;28;6781;-76
2022/08/01 06:13:23;;;;;;;;;;;;;;;24.15;61.93;100665.00;5013976;28;7253;-76
2022/08/01 06:15:49;;;;;;;;;;;;;;;24.21;62.41;100660.59;4980929;28;6792;-76
2022/08/01 06:18:15;;;;;;;;;;;;;;;24.29;62.59;100660.56;4979262;28;7413;-75
2022/08/01 06:20:41;;;;;;;;;;;;;;;24.38;62.29;100663.13;4977036;28;7195;-77
2022/08/01 06:23:08;;;;;;;;;;;;;;;24.46;62.34;100660.47;4984642;28;7115;-76
2022/08/01 06:25:33;;;;;;;;;;;;;;;24.56;62.14;100666.53;4995158;28;7314;-76
2022/08/01 06:28:00;;;;;;;;;;;;;;;24.65;61.99;100663.00;4980402;28;6848;-76
2022/08/01 06:30:26;;;;;;;;;;;;;;;24.72;61.42;100664.66;4984622;28;6978;-76
2022/08/01 06:32:52;;;;;;;;;;;;;;;24.78;61.69;100662.06;5012826;28;6935;-77
2022/08/01 06:35:18;;;;;;;;;;;;;;;24.85;61.45;100667.25;4991047;28;7044;-76
2022/08/01 06:37:46;;;;;;;;;;;;;;;24.88;61.13;100652.38;5014462;28;7159;-77
2022/08/01 06:40:13;;;;;;;;;;;;;;;24.93;61.64;100658.44;5013900;28;7210;-77
2022/08/01 06:42:39;;;;;;;;;;;;;;;25.04;62.04;100660.13;4979917;28;7192;-77
2022/08/01 06:45:08;;;;;;;;;;;;;;;25.21;62.03;100660.00;4984253;28;7402;-76
2022/08/01 06:47:34;;;;;;;;;;;;;;;25.42;61.52;100665.91;5015117;28;7220;-76
2022/08/01 06:50:00;;;;;;;;;;;;;;;25.61;61.39;100664.00;4982658;28;6803;-76
2022/08/01 06:52:25;;;;;;;;;;;;;;;25.74;60.78;100670.00;4981513;28;7217;-77
2022/08/01 06:54:52;;;;;;;;;;;;;;;25.83;59.79;100661.13;5012619;28;7178;-77
2022/08/01 06:57:18;;;;;;;;;;;;;;;25.89;59.33;100661.06;4974016;28;7925;-77
2022/08/01 06:59:43;;;;;;;;;;;;;;;25.97;59.98;100659.22;5013251;28;7006;-76
2022/08/01 07:02:09;;;;;;;;;;;;;;;26.15;59.98;100665.16;5010159;28;6931;-77
2022/08/01 07:04:35;;;;;;;;;;;;;;;26.39;59.95;100664.00;5014293;28;7171;-77
2022/08/01 07:07:00;;;;;;;;;;;;;;;26.57;58.83;100656.75;5010379;28;6845;-77
2022/08/01 07:09:26;;;;;;;;;;;;;;;26.63;58.00;100661.88;5011820;28;7320;-77
2022/08/01 07:11:53;;;;;;;;;;;;;;;26.65;57.47;100654.84;4999433;28;7021;-77
2022/08/01 07:14:20;;;;;;;;;;;;;;;26.66;57.18;100651.34;5011664;28;7259;-76
2022/08/01 07:16:46;;;;;;;;;;;;;;;26.68;56.92;100654.81;5009963;28;7105;-77
2022/08/01 07:19:12;;;;;;;;;;;;;;;26.63;56.41;100654.00;4994430;28;7002;-77
2022/08/01 07:21:38;;;;;;;;;;;;;;;26.58;56.62;100656.69;5013886;28;7828;-76
2022/08/01 07:24:05;;;;;;;;;;;;;;;26.61;57.45;100658.41;5014204;28;6780;-76
2022/08/01 07:26:31;;;;;;;;;;;;;;;26.75;57.73;100661.72;4978224;28;7138;-76
2022/08/01 07:28:57;;;;;;;;;;;;;;;26.95;57.52;100652.69;4978465;28;7213;-76
2022/08/01 07:31:23;;;;;;;;;;;;;;;27.14;56.82;100658.50;5009285;28;6858;-76
2022/08/01 07:33:49;;;;;;;;;;;;;;;27.29;55.93;100661.78;4997545;28;7267;-76
2022/08/01 07:36:16;;;;;;;;;;;;;;;27.36;55.21;100663.38;4980290;28;7925;-76
2022/08/01 07:38:42;;;;;;;;;;;;;;;27.34;54.44;100665.16;4976407;28;8228;-76
2022/08/01 07:41:07;;;;;;;;;;;;;;;27.23;54.07;100667.97;4975447;28;6999;-77
2022/08/01 07:43:35;;;;;;;;;;;;;;;27.08;53.91;100671.72;4994138;28;6772;-76
2022/08/01 07:46:04;;;;;;;;;;;;;;;26.99;53.75;100679.78;5005633;28;6880;-76
2022/08/01 07:48:30;;;;;;;;;;;;;;;26.92;54.16;100684.28;5010237;28;7045;-76
2022/08/01 07:50:56;;;;;;;;;;;;;;;26.95;54.69;100676.34;4975684;28;8231;-76
2022/08/01 07:53:22;;;;;;;;;;;;;;;27.07;54.90;100672.63;5009293;28;6775;-76
2022/08/01 07:55:47;;;;;;;;;;;;;;;27.28;54.67;100676.66;4983818;28;6795;-76
2022/08/01 07:58:14;;;;;;;;;;;;;;;27.45;54.32;100681.63;4979917;28;6964;-76
2022/08/01 08:00:40;;;;;;;;;;;;;;;27.58;53.79;100674.41;4978536;28;7188;-76
2022/08/01 08:03:05;;;;;;;;;;;;;;;27.63;53.32;100682.22;5027268;28;6826;-76
2022/08/01 08:05:34;;;;;;;;;;;;;;;27.68;53.15;100682.13;4975982;28;8183;-76
2022/08/01 08:08:04;;;;;;;;;;;;;;;27.72;53.01;100681.19;5010017;28;7238;-76
2022/08/01 08:10:29;;;;;;;;;;;;;;;27.75;52.03;100686.41;5008977;28;7011;-76
2022/08/01 08:12:55;;;;;;;;;;;;;;;27.71;51.97;100684.69;4977598;28;7158;-77
2022/08/01 08:15:21;;;;;;;;;;;;;;;27.65;51.68;100692.72;5007965;28;6974;-76
2022/08/01 08:17:46;;;;;;;;;;;;;;;27.55;51.69;100686.75;4982562;28;6772;-75
2022/08/01 08:20:12;;;;;;;;;;;;;;;27.43;51.63;100695.72;5012307;28;7240;-76
2022/08/01 08:22:38;;;;;;;;;;;;;;;27.37;52.18;100695.81;4982878;28;7142;-76
2022/08/01 08:25:06;;;;;;;;;;;;;;;27.35;52.59;100698.47;5011948;28;6796;-76
2022/08/01 08:27:31;;;;;;;;;;;;;;;27.34;52.19;100698.53;4998695;28;7043;-76
2022/08/01 08:29:57;;;;;;;;;;;;;;;27.30;51.49;100706.44;4980741;28;6937;-76
2022/08/01 08:32:22;;;;;;;;;;;;;;;27.28;51.82;100712.63;4985532;28;7031;-76
2022/08/01 08:34:48;;;;;;;;;;;;;;;27.31;51.96;100697.66;5014144;28;7158;-76
2022/08/01 08:37:14;;;;;;;;;;;;;;;27.36;51.81;100705.47;4977767;28;7186;-76
2022/08/01 08:39:41;;;;;;;;;;;;;;;27.28;51.46;100705.63;5008557;28;7178;-76
2022/08/01 08:42:08;;;;;;;;;;;;;;;27.15;51.77;100711.97;5009945;28;6823;-76
2022/08/01 08:44:34;;;;;;;;;;;;;;;27.01;52.38;100704.31;4982378;28;6873;-76
2022/08/01 08:47:06;;;;;;;;;;;;;;;26.90;52.04;100704.47;5010071;28;6946;-76
2022/08/01 08:49:32;;;;;;;;;;;;;;;26.78;52.34;100707.25;4986184;28;7425;-75
2022/08/01 08:52:01;;;;;;;;;;;;;;;26.64;52.59;100710.94;5013319;28;7197;-76
2022/08/01 08:54:29;;;;;;;;;;;;;;;26.55;53.04;100711.94;4986484;28;6978;-76
2022/08/01 08:56:56;;;;;;;;;;;;;;;26.51;53.70;100715.50;4979383;28;6820;-76
2022/08/01 08:59:25;;;;;;;;;;;;;;;26.48;53.42;100715.53;5013946;28;8246;-75
2022/08/01 09:01:51;;;;;;;;;;;;;;;26.47;53.75;100714.69;4981326;28;7030;-76
2022/08/01 09:04:17;;;;;;;;;;;;;;;26.54;53.91;100720.72;5003299;28;6860;-76
2022/08/01 09:06:43;;;;;;;;;;;;;;;26.65;54.02;100723.19;5014482;28;8239;-76
2022/08/01 09:09:09;;;;;;;;;;;;;;;26.80;53.71;100721.25;4980823;28;9377;-76
2022/08/01 09:11:36;;;;;;;;;;;;;;;26.98;53.86;100710.47;4980714;28;6784;-75
2022/08/01 09:14:12;;;;;;;;;;;;;;;27.22;53.12;100716.22;5011571;28;6804;-75
2022/08/01 09:16:44;;;;;;;;;;;;;;;27.43;52.42;100715.00;4983424;28;6926;-76
2022/08/01 09:26:35;;;;;;;;;;;;;;;28.42;51.71;100716.69;4981724;28;6776;-75
2022/08/01 09:29:05;;;;;;;;;;;;;;;29.25;50.99;100706.00;4985893;28;7024;-76
2022/08/01 09:31:43;;;;;;;;;;;;;;;30.21;48.49;100710.53;4983425;28;6976;-76
2022/08/01 09:34:09;;;;;;;;;;;;;;;30.83;45.80;100718.38;5010202;28;6788;-76
2022/08/01 09:36:58;;;;;;;;;;;;;;;31.11;44.82;100711.31;4983384;28;7654;-76
2022/08/01 09:39:27;;;;;;;;;;;;;;;31.20;44.13;100720.75;4978256;28;8110;-76
2022/08/01 09:41:55;;;;;;;;;;;;;;;31.26;43.42;100708.19;5023024;28;7358;-76
2022/08/01 09:44:43;;;;;;;;;;;;;;;31.26;43.87;100716.13;5000170;28;7007;-76
2022/08/01 09:47:10;;;;;;;;;;;;;;;31.35;44.09;100707.00;4969251;28;7274;-76
2022/08/01 09:49:38;;;;;;;;;;;;;;;31.51;43.92;100714.44;5008229;28;7009;-76
2022/08/01 09:52:20;;;;;;;;;;;;;;;31.73;43.21;100714.53;4982014;28;7165;-76
2022/08/01 09:54:59;;;;;;;;;;;;;;;31.90;42.28;100713.06;4985371;28;6968;-76
2022/08/01 09:57:27;;;;;;;;;;;;;;;32.04;42.19;100707.25;4987649;28;6800;-76
2022/08/01 09:59:57;;;;;;;;;;;;;;;32.23;41.67;100710.09;4995970;28;7255;-76
2022/08/01 10:02:35;;;;;;;;;;;;;;;32.49;41.54;100709.13;4961883;28;7479;-77
2022/08/01 10:05:06;;;;;;;;;;;;;;;32.88;40.88;100709.38;5016297;28;6808;-76
2022/08/01 10:07:32;;;;;;;;;;;;;;;33.39;39.99;100708.13;4962397;28;6983;-76
2022/08/01 10:10:15;;;;;;;;;;;;;;;33.90;39.08;100702.41;5015622;28;6914;-76
2022/08/01 10:12:42;;;;;;;;;;;;;;;34.48;37.78;100702.41;5016893;28;7009;-76
2022/08/01 10:15:09;;;;;;;;;;;;;;;35.18;38.02;100697.25;5013831;28;6795;-76
2022/08/01 10:17:40;;;;;;;;;;;;;;;35.91;36.58;100694.41;5017495;28;7268;-76
2022/08/01 10:20:07;;;;;;;;;;;;;;;36.40;35.28;100706.88;4986063;28;6808;-76
2022/08/01 10:22:35;;;;;;;;;;;;;;;36.71;34.57;100697.16;5012010;28;7241;-76
2022/08/01 10:25:04;;;;;;;;;;;;;;;37.08;34.22;100692.34;5012031;28;7239;-76
2022/08/01 10:27:36;;;;;;;;;;;;;;;37.59;33.34;100695.59;5016100;28;6989;-76
2022/08/01 10:30:05;;;;;;;;;;;;;;;37.64;32.22;100698.84;4986096;28;7204;-77
2022/08/01 10:32:31;;;;;;;;;;;;;;;37.32;32.34;100698.97;4976094;28;7028;-76
2022/08/01 10:35:00;;;;;;;;;;;;;;;37.21;31.72;100697.81;5029162;28;6979;-77
2022/08/01 10:37:26;;;;;;;;;;;;;;;37.31;31.86;100692.75;4991166;28;7658;-77
2022/08/01 10:39:54;;;;;;;;;;;;;;;37.31;31.51;100690.09;4970037;28;7001;-77
2022/08/01 10:42:21;;;;;;;;;;;;;;;37.27;30.98;100690.38;5013524;28;7244;-77
2022/08/01 10:44:48;;;;;;;;;;;;;;;37.38;31.06;100691.44;4977341;28;7312;-77
2022/08/01 10:47:20;;;;;;;;;;;;;;;37.37;30.13;100688.84;5010555;28;7165;-77
2022/08/01 10:50:17;;;;;;;;;;;;;;;37.10;30.40;100692.25;5012519;28;7185;-76
2022/08/01 10:53:11;;;;;;;;;;;;;;;36.64;30.08;100696.66;4983230;28;6811;-76
2022/08/01 10:56:00;;;;;;;;;;;;;;;36.36;31.10;100692.84;4979971;28;7254;-76
2022/08/01 10:58:36;;;;;;;;;;;;;;;36.51;30.47;100691.13;4999973;28;7178;-76
2022/08/01 11:01:14;;;;;;;;;;;;;;;36.71;30.25;100698.97;4982557;28;6816;-76
2022/08/01 11:03:45;;;;;;;;;;;;;;;36.45;29.71;100693.28;5011597;28;8404;-77
2022/08/01 11:06:35;;;;;;;;;;;;;;;36.22;30.39;100687.44;4982064;28;6976;-76
2022/08/01 11:09:11;;;;;;;;;;;;;;;36.48;30.13;100701.09;4981186;28;6883;-76
2022/08/01 11:12:10;;;;;;;;;;;;;;;36.95;29.65;100689.50;4980921;28;7391;-76
2022/08/01 11:14:57;;;;;;;;;;;;;;;37.40;29.52;100687.81;4975568;28;6995;-76
2022/08/01 11:17:48;;;;;;;;;;;;;;;37.45;29.09;100677.72;4983380;28;6848;-76
2022/08/01 11:20:23;;;;;;;;;;;;;;;37.36;28.08;100673.78;5008669;28;8247;-76
2022/08/01 11:23:01;;;;;;;;;;;;;;;36.97;28.72;100686.75;5029678;28;6984;-76
2022/08/01 11:25:35;;;;;;;;;;;;;;;36.85;28.74;100674.13;5011076;28;7129;-76
2022/08/01 11:28:13;;;;;;;;;;;;;;;37.06;28.68;100672.00;4980947;28;7181;-77
2022/08/01 11:30:43;;;;;;;;;;;;;;;37.45;28.65;100670.53;5010512;28;7883;-77
2022/08/01 11:33:10;;;;;;;;;;;;;;;37.76;27.86;100662.47;5000689;28;7335;-76
2022/08/01 11:35:38;;;;;;;;;;;;;;;37.94;27.02;100668.44;4993303;28;7143;-77
2022/08/01 11:38:29;;;;;;;;;;;;;;;38.01;27.18;100667.13;4980585;28;6857;-76
2022/08/01 11:41:27;;;;;;;;;;;;;;;38.10;26.59;100679.09;4993507;28;7099;-76
2022/08/01 11:44:06;;;;;;;;;;;;;;;38.04;26.71;100672.28;5008806;28;6987;-76
2022/08/01 11:47:09;;;;;;;;;;;;;;;37.84;26.55;100678.88;4986578;28;6980;-77
2022/08/01 11:49:40;;;;;;;;;;;;;;;37.72;26.30;100677.84;4984780;28;6965;-77
2022/08/01 11:52:29;;;;;;;;;;;;;;;37.58;27.08;100678.69;5013594;28;7191;-77
2022/08/01 11:55:08;;;;;;;;;;;;;;;37.66;27.10;100675.53;5011848;28;6980;-77
2022/08/01 11:57:34;;;;;;;;;;;;;;;37.97;26.55;100673.63;4979972;28;6986;-77
2022/08/01 12:00:10;;;;;;;;;;;;;;;37.97;26.57;100676.28;5002493;28;6958;-77
2022/08/01 12:02:35;;;;;;;;;;;;;;;37.48;26.68;100683.75;4981718;28;6816;-77
2022/08/01 12:05:06;;;;;;;;;;;;;;;36.93;27.08;100675.38;5015626;28;7304;-77
2022/08/01 12:07:35;;;;;;;;;;;;;;;36.56;27.32;100680.22;5012793;28;7058;-76
2022/08/01 12:10:05;;;;;;;;;;;;;;;36.11;27.29;100680.88;4995570;28;7219;-76
2022/08/01 12:12:34;;;;;;;;;;;;;;;35.92;28.10;100686.34;4985098;28;7261;-76
2022/08/01 12:15:08;;;;;;;;;;;;;;;36.10;28.27;100687.16;4991989;28;7493;-76
2022/08/01 12:17:38;;;;;;;;;;;;;;;36.48;27.73;100687.75;5009751;28;6816;-76
2022/08/01 12:20:10;;;;;;;;;;;;;;;36.91;27.22;100681.75;4977004;28;7260;-77
2022/08/01 12:22:37;;;;;;;;;;;;;;;37.33;27.34;100669.50;5010654;28;7895;-77
2022/08/01 12:25:15;;;;;;;;;;;;;;;37.73;26.71;100668.84;4987809;28;7121;-77
2022/08/01 12:27:44;;;;;;;;;;;;;;;38.04;26.06;100676.78;4989383;28;6803;-76
2022/08/01 12:30:15;;;;;;;;;;;;;;;38.27;25.61;100669.06;5030002;28;8076;-77
2022/08/01 12:32:44;;;;;;;;;;;;;;;38.42;25.11;100673.44;4996956;28;13064;-76
2022/08/01 12:35:14;;;;;;;;;;;;;;;38.36;24.67;100670.31;5016321;28;7035;-75
2022/08/01 12:37:47;;;;;;;;;;;;;;;38.15;24.12;100671.59;4996733;28;6974;-76
2022/08/01 12:40:14;;;;;;;;;;;;;;;37.68;24.09;100675.44;4982515;28;6793;-76
2022/08/01 12:42:42;;;;;;;;;;;;;;;37.10;24.82;100679.75;5012699;28;6796;-76
2022/08/01 12:45:10;;;;;;;;;;;;;;;36.67;25.16;100676.94;5013569;28;6987;-76
2022/08/01 12:47:39;;;;;;;;;;;;;;;36.23;25.56;100678.50;5013882;28;7022;-76
2022/08/01 12:50:20;;;;;;;;;;;;;;;35.81;26.70;100673.59;4987190;28;7065;-76
2022/08/01 12:52:48;;;;;;;;;;;;;;;35.37;26.78;100671.47;4986093;28;8029;-76
2022/08/01 12:55:27;;;;;;;;;;;;;;;35.03;26.58;100676.72;5015818;28;6859;-76
2022/08/01 12:58:14;;;;;;;;;;;;;;;34.60;27.03;100679.72;4985576;28;7466;-77
2022/08/01 13:00:43;;;;;;;;;;;;;;;34.28;27.62;100672.31;4977381;28;7268;-76
2022/08/01 13:03:19;;;;;;;;;;;;;;;34.12;28.34;100677.50;5031041;28;7006;-76
2022/08/01 13:05:52;;;;;;;;;;;;;;;34.15;27.97;100679.16;4980397;28;6863;-75
2022/08/01 13:08:30;;;;;;;;;;;;;;;34.30;27.92;100682.91;4977017;28;6864;-75
2022/08/01 13:11:04;;;;;;;;;;;;;;;34.59;27.44;100675.34;5011545;28;7940;-75